sensor_id;sensor_type;location;lat;lon;timestamp;pressure;altitude;pressure_sealevel;temperature;humidity
72855;BME280;60991;51.278;22.550;2022-12-18T00:00:57;100307.03;;;-4.98;76.53
72855;BME280;60991;51.278;22.550;2022-12-18T00:02:27;100309.59;;;-5.20;77.18
72855;BME280;60991;51.278;22.550;2022-12-18T00:03:58;100316.69;;;-5.46;78.06
72855;BME280;60991;51.278;22.550;2022-12-18T00:05:29;100309.97;;;-5.49;78.19
72855;BME280;60991;51.278;22.550;2022-12-18T00:06:59;100318.88;;;-5.53;78.61
72855;BME280;60991;51.278;22.550;2022-12-18T00:08:30;100321.84;;;-5.57;78.75
72855;BME280;60991;51.278;22.550;2022-12-18T00:10:00;100322.78;;;-5.59;78.79
72855;BME280;60991;51.278;22.550;2022-12-18T00:11:31;100328.78;;;-5.58;78.84
72855;BME280;60991;51.278;22.550;2022-12-18T00:13:01;100333.22;;;-5.60;79.02
72855;BME280;60991;51.278;22.550;2022-12-18T00:14:32;100334.38;;;-5.64;78.94
72855;BME280;60991;51.278;22.550;2022-12-18T00:16:04;100329.81;;;-5.61;79.18
72855;BME280;60991;51.278;22.550;2022-12-18T00:17:34;100337.19;;;-5.67;78.82
72855;BME280;60991;51.278;22.550;2022-12-18T00:19:06;100336.75;;;-5.61;78.94
72855;BME280;60991;51.278;22.550;2022-12-18T00:20:38;100339.22;;;-5.60;78.57
72855;BME280;60991;51.278;22.550;2022-12-18T00:22:08;100341.84;;;-5.72;79.06
72855;BME280;60991;51.278;22.550;2022-12-18T00:23:41;100341.13;;;-5.74;79.32
72855;BME280;60991;51.278;22.550;2022-12-18T00:25:11;100351.09;;;-5.81;79.70
72855;BME280;60991;51.278;22.550;2022-12-18T00:26:41;100357.34;;;-5.72;79.78
72855;BME280;60991;51.278;22.550;2022-12-18T00:28:11;100346.03;;;-5.82;79.64
72855;BME280;60991;51.278;22.550;2022-12-18T00:29:41;100346.75;;;-5.80;79.87
72855;BME280;60991;51.278;22.550;2022-12-18T00:31:17;100346.91;;;-5.71;79.62
72855;BME280;60991;51.278;22.550;2022-12-18T00:32:48;100338.28;;;-5.59;79.09
72855;BME280;60991;51.278;22.550;2022-12-18T00:34:18;100353.09;;;-5.61;79.36
72855;BME280;60991;51.278;22.550;2022-12-18T00:35:49;100344.72;;;-5.64;79.14
72855;BME280;60991;51.278;22.550;2022-12-18T00:37:19;100361.38;;;-5.68;79.21
72855;BME280;60991;51.278;22.550;2022-12-18T00:38:49;100359.13;;;-5.49;78.97
72855;BME280;60991;51.278;22.550;2022-12-18T00:40:20;100352.50;;;-5.53;78.70
72855;BME280;60991;51.278;22.550;2022-12-18T00:41:50;100360.13;;;-5.63;78.45
72855;BME280;60991;51.278;22.550;2022-12-18T00:43:20;100356.78;;;-5.76;79.28
72855;BME280;60991;51.278;22.550;2022-12-18T00:44:50;100357.59;;;-5.75;78.64
72855;BME280;60991;51.278;22.550;2022-12-18T00:46:20;100363.75;;;-5.65;79.20
72855;BME280;60991;51.278;22.550;2022-12-18T00:47:51;100362.16;;;-5.79;79.32
72855;BME280;60991;51.278;22.550;2022-12-18T00:49:21;100365.38;;;-5.75;79.56
72855;BME280;60991;51.278;22.550;2022-12-18T00:50:51;100370.03;;;-5.80;79.31
72855;BME280;60991;51.278;22.550;2022-12-18T00:52:22;100369.31;;;-5.82;79.39
72855;BME280;60991;51.278;22.550;2022-12-18T00:53:52;100373.84;;;-5.86;79.71
72855;BME280;60991;51.278;22.550;2022-12-18T00:55:22;100383.25;;;-5.96;79.87
72855;BME280;60991;51.278;22.550;2022-12-18T00:56:52;100374.56;;;-5.95;79.71
72855;BME280;60991;51.278;22.550;2022-12-18T00:58:23;100380.41;;;-5.93;79.79
72855;BME280;60991;51.278;22.550;2022-12-18T00:59:53;100375.69;;;-5.99;79.95
72855;BME280;60991;51.278;22.550;2022-12-18T01:01:23;100377.38;;;-5.87;79.66
72855;BME280;60991;51.278;22.550;2022-12-18T01:02:53;100372.91;;;-5.96;80.21
72855;BME280;60991;51.278;22.550;2022-12-18T01:04:23;100373.44;;;-5.80;79.22
72855;BME280;60991;51.278;22.550;2022-12-18T01:05:54;100380.97;;;-5.77;79.46
72855;BME280;60991;51.278;22.550;2022-12-18T01:07:24;100382.38;;;-5.60;79.23
72855;BME280;60991;51.278;22.550;2022-12-18T01:08:55;100384.38;;;-5.52;78.51
72855;BME280;60991;51.278;22.550;2022-12-18T01:10:25;100384.66;;;-5.68;78.86
72855;BME280;60991;51.278;22.550;2022-12-18T01:11:55;100384.50;;;-5.78;79.06
72855;BME280;60991;51.278;22.550;2022-12-18T01:13:25;100386.41;;;-5.69;79.20
72855;BME280;60991;51.278;22.550;2022-12-18T01:14:56;100389.00;;;-5.69;79.35
72855;BME280;60991;51.278;22.550;2022-12-18T01:16:26;100393.28;;;-5.57;79.08
72855;BME280;60991;51.278;22.550;2022-12-18T01:17:56;100391.16;;;-5.63;78.83
72855;BME280;60991;51.278;22.550;2022-12-18T01:19:26;100404.91;;;-5.62;78.92
72855;BME280;60991;51.278;22.550;2022-12-18T01:20:57;100401.00;;;-5.68;79.45
72855;BME280;60991;51.278;22.550;2022-12-18T01:22:27;100403.38;;;-5.65;79.04
72855;BME280;60991;51.278;22.550;2022-12-18T01:23:57;100403.91;;;-5.72;79.42
72855;BME280;60991;51.278;22.550;2022-12-18T01:25:27;100408.25;;;-5.73;79.12
72855;BME280;60991;51.278;22.550;2022-12-18T01:26:58;100406.31;;;-5.82;79.35
72855;BME280;60991;51.278;22.550;2022-12-18T01:28:28;100410.06;;;-5.86;79.74
72855;BME280;60991;51.278;22.550;2022-12-18T01:29:58;100413.38;;;-5.84;79.55
72855;BME280;60991;51.278;22.550;2022-12-18T01:31:31;100418.53;;;-5.84;79.84
72855;BME280;60991;51.278;22.550;2022-12-18T01:33:04;100418.63;;;-5.85;79.96
72855;BME280;60991;51.278;22.550;2022-12-18T01:34:37;100421.97;;;-5.60;79.51
72855;BME280;60991;51.278;22.550;2022-12-18T01:36:14;100426.44;;;-5.62;79.38
72855;BME280;60991;51.278;22.550;2022-12-18T01:37:44;100422.34;;;-5.53;79.14
72855;BME280;60991;51.278;22.550;2022-12-18T01:39:15;100423.69;;;-5.47;78.64
72855;BME280;60991;51.278;22.550;2022-12-18T01:40:45;100419.16;;;-5.57;78.83
72855;BME280;60991;51.278;22.550;2022-12-18T01:42:16;100422.72;;;-5.70;79.28
72855;BME280;60991;51.278;22.550;2022-12-18T01:43:54;100423.56;;;-5.70;79.43
72855;BME280;60991;51.278;22.550;2022-12-18T01:45:30;100429.06;;;-5.50;79.05
72855;BME280;60991;51.278;22.550;2022-12-18T01:47:01;100426.91;;;-5.57;79.02
72855;BME280;60991;51.278;22.550;2022-12-18T01:48:31;100424.78;;;-5.63;79.21
72855;BME280;60991;51.278;22.550;2022-12-18T01:51:44;100424.84;;;-5.51;78.58
72855;BME280;60991;51.278;22.550;2022-12-18T01:53:17;100430.13;;;-5.53;78.56
72855;BME280;60991;51.278;22.550;2022-12-18T01:54:50;100428.00;;;-5.72;79.11
72855;BME280;60991;51.278;22.550;2022-12-18T01:56:21;100430.41;;;-5.81;79.54
72855;BME280;60991;51.278;22.550;2022-12-18T01:57:54;100427.84;;;-5.81;79.75
72855;BME280;60991;51.278;22.550;2022-12-18T01:59:25;100435.81;;;-5.84;79.69
72855;BME280;60991;51.278;22.550;2022-12-18T02:00:55;100432.38;;;-5.85;80.01
72855;BME280;60991;51.278;22.550;2022-12-18T02:02:27;100435.59;;;-5.81;80.19
72855;BME280;60991;51.278;22.550;2022-12-18T02:04:19;100439.75;;;-5.91;80.41
72855;BME280;60991;51.278;22.550;2022-12-18T02:06:06;100444.44;;;-5.97;80.73
72855;BME280;60991;51.278;22.550;2022-12-18T02:07:50;100455.00;;;-6.00;80.75
72855;BME280;60991;51.278;22.550;2022-12-18T02:09:39;100464.97;;;-5.82;80.72
72855;BME280;60991;51.278;22.550;2022-12-18T02:13:19;100461.09;;;-5.64;80.19
72855;BME280;60991;51.278;22.550;2022-12-18T02:17:37;100469.31;;;-5.46;79.77
72855;BME280;60991;51.278;22.550;2022-12-18T02:18:39;100466.34;;;-5.29;78.99
72855;BME280;60991;51.278;22.550;2022-12-18T02:22:20;100471.03;;;-5.10;78.23
72855;BME280;60991;51.278;22.550;2022-12-18T02:24:19;100464.31;;;-5.37;78.51
72855;BME280;60991;51.278;22.550;2022-12-18T02:26:18;100466.06;;;-5.61;79.60
72855;BME280;60991;51.278;22.550;2022-12-18T02:27:51;100472.38;;;-5.65;79.68
72855;BME280;60991;51.278;22.550;2022-12-18T02:29:23;100469.94;;;-5.43;79.33
72855;BME280;60991;51.278;22.550;2022-12-18T02:30:56;100472.53;;;-5.43;78.92
72855;BME280;60991;51.278;22.550;2022-12-18T02:32:34;100480.53;;;-5.59;79.61
72855;BME280;60991;51.278;22.550;2022-12-18T02:34:07;100479.13;;;-5.39;79.07
72855;BME280;60991;51.278;22.550;2022-12-18T02:35:40;100487.66;;;-5.26;78.53
72855;BME280;60991;51.278;22.550;2022-12-18T02:37:14;100490.47;;;-5.29;78.98
72855;BME280;60991;51.278;22.550;2022-12-18T02:38:46;100490.38;;;-5.27;78.99
72855;BME280;60991;51.278;22.550;2022-12-18T02:40:18;100487.78;;;-5.27;79.14
72855;BME280;60991;51.278;22.550;2022-12-18T02:41:51;100484.88;;;-5.22;78.71
72855;BME280;60991;51.278;22.550;2022-12-18T02:43:21;100484.25;;;-5.02;78.29
72855;BME280;60991;51.278;22.550;2022-12-18T02:44:52;100492.56;;;-5.10;78.81
72855;BME280;60991;51.278;22.550;2022-12-18T02:46:27;100493.72;;;-5.14;79.10
72855;BME280;60991;51.278;22.550;2022-12-18T02:47:58;100493.88;;;-5.28;79.33
72855;BME280;60991;51.278;22.550;2022-12-18T02:51:31;100497.47;;;-5.42;80.10
72855;BME280;60991;51.278;22.550;2022-12-18T02:56:39;100492.72;;;-5.48;80.64
72855;BME280;60991;51.278;22.550;2022-12-18T03:00:21;100487.94;;;-5.41;80.96
72855;BME280;60991;51.278;22.550;2022-12-18T03:02:11;100501.69;;;-5.41;80.79
72855;BME280;60991;51.278;22.550;2022-12-18T03:03:59;100502.38;;;-5.26;80.22
72855;BME280;60991;51.278;22.550;2022-12-18T03:05:33;100503.81;;;-5.22;80.53
72855;BME280;60991;51.278;22.550;2022-12-18T03:07:10;100506.63;;;-5.25;80.03
72855;BME280;60991;51.278;22.550;2022-12-18T03:08:45;100499.78;;;-5.26;80.25
72855;BME280;60991;51.278;22.550;2022-12-18T03:10:21;100503.03;;;-5.11;79.83
72855;BME280;60991;51.278;22.550;2022-12-18T03:11:57;100502.91;;;-5.34;80.21
72855;BME280;60991;51.278;22.550;2022-12-18T03:13:52;100502.41;;;-5.15;80.20
72855;BME280;60991;51.278;22.550;2022-12-18T03:15:47;100505.13;;;-5.16;79.77
72855;BME280;60991;51.278;22.550;2022-12-18T03:17:20;100512.53;;;-5.36;80.60
72855;BME280;60991;51.278;22.550;2022-12-18T03:18:56;100508.94;;;-5.46;80.97
72855;BME280;60991;51.278;22.550;2022-12-18T03:20:31;100513.50;;;-5.49;81.10
72855;BME280;60991;51.278;22.550;2022-12-18T03:22:04;100515.94;;;-5.35;80.70
72855;BME280;60991;51.278;22.550;2022-12-18T03:23:40;100513.16;;;-5.32;80.74
72855;BME280;60991;51.278;22.550;2022-12-18T03:25:14;100515.47;;;-5.16;80.43
72855;BME280;60991;51.278;22.550;2022-12-18T03:26:57;100524.41;;;-4.97;79.81
72855;BME280;60991;51.278;22.550;2022-12-18T03:28:30;100525.69;;;-5.02;79.83
72855;BME280;60991;51.278;22.550;2022-12-18T03:30:07;100529.78;;;-5.00;79.72
72855;BME280;60991;51.278;22.550;2022-12-18T03:31:40;100521.38;;;-4.91;79.17
72855;BME280;60991;51.278;22.550;2022-12-18T03:33:18;100521.78;;;-4.84;78.92
72855;BME280;60991;51.278;22.550;2022-12-18T03:34:53;100523.31;;;-5.05;79.84
72855;BME280;60991;51.278;22.550;2022-12-18T03:36:26;100528.50;;;-5.18;79.65
72855;BME280;60991;51.278;22.550;2022-12-18T03:37:57;100525.25;;;-5.20;80.23
72855;BME280;60991;51.278;22.550;2022-12-18T03:39:27;100537.00;;;-5.16;80.09
72855;BME280;60991;51.278;22.550;2022-12-18T03:41:11;100534.03;;;-4.99;79.56
72855;BME280;60991;51.278;22.550;2022-12-18T03:42:52;100545.78;;;-5.06;79.52
72855;BME280;60991;51.278;22.550;2022-12-18T03:44:31;100546.41;;;-5.15;79.96
72855;BME280;60991;51.278;22.550;2022-12-18T03:46:30;100555.06;;;-5.27;80.32
72855;BME280;60991;51.278;22.550;2022-12-18T03:51:50;100556.50;;;-4.99;80.07
72855;BME280;60991;51.278;22.550;2022-12-18T03:54:53;100567.75;;;-4.64;78.71
72855;BME280;60991;51.278;22.550;2022-12-18T03:56:29;100560.81;;;-4.63;78.44
72855;BME280;60991;51.278;22.550;2022-12-18T03:58:01;100569.41;;;-4.63;78.21
72855;BME280;60991;51.278;22.550;2022-12-18T03:59:35;100573.72;;;-4.74;78.63
72855;BME280;60991;51.278;22.550;2022-12-18T04:01:07;100574.66;;;-4.51;78.53
72855;BME280;60991;51.278;22.550;2022-12-18T04:02:43;100568.75;;;-4.54;78.09
72855;BME280;60991;51.278;22.550;2022-12-18T04:04:16;100577.75;;;-4.70;78.50
72855;BME280;60991;51.278;22.550;2022-12-18T04:05:50;100573.22;;;-4.79;79.03
72855;BME280;60991;51.278;22.550;2022-12-18T04:07:22;100577.66;;;-4.81;79.09
72855;BME280;60991;51.278;22.550;2022-12-18T04:08:52;100569.25;;;-4.72;78.91
72855;BME280;60991;51.278;22.550;2022-12-18T04:10:23;100579.22;;;-4.79;78.51
72855;BME280;60991;51.278;22.550;2022-12-18T04:11:53;100581.91;;;-4.80;78.82
72855;BME280;60991;51.278;22.550;2022-12-18T04:13:28;100576.84;;;-4.82;78.96
72855;BME280;60991;51.278;22.550;2022-12-18T04:14:58;100581.59;;;-4.76;78.82
72855;BME280;60991;51.278;22.550;2022-12-18T04:16:29;100587.28;;;-4.71;79.06
72855;BME280;60991;51.278;22.550;2022-12-18T04:17:59;100585.94;;;-4.76;78.63
72855;BME280;60991;51.278;22.550;2022-12-18T04:19:29;100584.28;;;-4.77;78.81
72855;BME280;60991;51.278;22.550;2022-12-18T04:20:59;100590.00;;;-4.61;78.79
72855;BME280;60991;51.278;22.550;2022-12-18T04:22:29;100591.63;;;-4.71;78.39
72855;BME280;60991;51.278;22.550;2022-12-18T04:24:00;100584.00;;;-4.62;77.81
72855;BME280;60991;51.278;22.550;2022-12-18T04:25:30;100588.03;;;-4.58;77.88
72855;BME280;60991;51.278;22.550;2022-12-18T04:27:00;100598.97;;;-4.65;77.87
72855;BME280;60991;51.278;22.550;2022-12-18T04:28:30;100597.63;;;-4.71;77.92
72855;BME280;60991;51.278;22.550;2022-12-18T04:30:01;100603.66;;;-4.70;77.80
72855;BME280;60991;51.278;22.550;2022-12-18T04:31:31;100608.66;;;-4.56;77.09
72855;BME280;60991;51.278;22.550;2022-12-18T04:33:01;100604.84;;;-4.63;77.53
72855;BME280;60991;51.278;22.550;2022-12-18T04:34:34;100601.66;;;-4.67;77.48
72855;BME280;60991;51.278;22.550;2022-12-18T04:36:05;100601.22;;;-4.84;77.86
72855;BME280;60991;51.278;22.550;2022-12-18T04:37:35;100608.16;;;-4.61;77.42
72855;BME280;60991;51.278;22.550;2022-12-18T04:39:05;100612.41;;;-4.60;76.54
72855;BME280;60991;51.278;22.550;2022-12-18T04:40:36;100623.44;;;-4.69;77.55
72855;BME280;60991;51.278;22.550;2022-12-18T04:42:07;100624.06;;;-4.78;77.60
72855;BME280;60991;51.278;22.550;2022-12-18T04:43:37;100614.88;;;-4.82;78.05
72855;BME280;60991;51.278;22.550;2022-12-18T04:45:08;100623.94;;;-5.01;78.07
72855;BME280;60991;51.278;22.550;2022-12-18T04:46:38;100619.09;;;-4.81;78.06
72855;BME280;60991;51.278;22.550;2022-12-18T04:48:08;100620.72;;;-4.68;77.57
72855;BME280;60991;51.278;22.550;2022-12-18T04:49:39;100630.09;;;-4.54;77.05
72855;BME280;60991;51.278;22.550;2022-12-18T04:51:09;100639.00;;;-4.45;76.85
72855;BME280;60991;51.278;22.550;2022-12-18T04:52:39;100626.03;;;-4.69;76.66
72855;BME280;60991;51.278;22.550;2022-12-18T04:54:09;100639.13;;;-4.83;77.14
72855;BME280;60991;51.278;22.550;2022-12-18T04:55:39;100641.94;;;-4.86;77.28
72855;BME280;60991;51.278;22.550;2022-12-18T04:57:10;100639.72;;;-4.80;77.14
72855;BME280;60991;51.278;22.550;2022-12-18T04:58:42;100633.34;;;-4.87;77.05
72855;BME280;60991;51.278;22.550;2022-12-18T05:00:13;100647.13;;;-4.99;77.40
72855;BME280;60991;51.278;22.550;2022-12-18T05:01:44;100648.97;;;-4.89;77.17
72855;BME280;60991;51.278;22.550;2022-12-18T05:03:14;100640.69;;;-4.94;77.27
72855;BME280;60991;51.278;22.550;2022-12-18T05:04:44;100649.94;;;-5.02;77.57
72855;BME280;60991;51.278;22.550;2022-12-18T05:06:14;100646.81;;;-4.95;77.90
72855;BME280;60991;51.278;22.550;2022-12-18T05:07:45;100652.19;;;-4.85;76.88
72855;BME280;60991;51.278;22.550;2022-12-18T05:09:15;100658.50;;;-4.89;76.73
72855;BME280;60991;51.278;22.550;2022-12-18T05:10:45;100659.25;;;-5.00;77.39
72855;BME280;60991;51.278;22.550;2022-12-18T05:12:16;100650.06;;;-5.04;77.24
72855;BME280;60991;51.278;22.550;2022-12-18T05:13:46;100660.09;;;-5.12;77.49
72855;BME280;60991;51.278;22.550;2022-12-18T05:15:16;100666.41;;;-5.16;77.45
72855;BME280;60991;51.278;22.550;2022-12-18T05:16:46;100670.75;;;-5.04;77.41
72855;BME280;60991;51.278;22.550;2022-12-18T05:18:16;100673.75;;;-4.97;77.14
72855;BME280;60991;51.278;22.550;2022-12-18T05:19:47;100673.91;;;-4.75;76.95
72855;BME280;60991;51.278;22.550;2022-12-18T05:21:17;100673.03;;;-4.63;75.91
72855;BME280;60991;51.278;22.550;2022-12-18T05:22:47;100675.56;;;-4.74;76.39
72855;BME280;60991;51.278;22.550;2022-12-18T05:24:17;100676.69;;;-4.78;76.02
72855;BME280;60991;51.278;22.550;2022-12-18T05:27:23;100683.25;;;-4.98;76.14
72855;BME280;60991;51.278;22.550;2022-12-18T05:28:56;100687.22;;;-5.05;76.89
72855;BME280;60991;51.278;22.550;2022-12-18T05:30:26;100686.69;;;-4.97;76.75
72855;BME280;60991;51.278;22.550;2022-12-18T05:31:57;100694.22;;;-4.81;76.11
72855;BME280;60991;51.278;22.550;2022-12-18T05:33:29;100688.53;;;-4.86;76.19
72855;BME280;60991;51.278;22.550;2022-12-18T05:35:00;100691.09;;;-4.74;76.13
72855;BME280;60991;51.278;22.550;2022-12-18T05:36:30;100694.31;;;-4.70;75.67
72855;BME280;60991;51.278;22.550;2022-12-18T05:38:01;100695.38;;;-4.85;75.51
72855;BME280;60991;51.278;22.550;2022-12-18T05:39:31;100696.53;;;-4.90;75.79
72855;BME280;60991;51.278;22.550;2022-12-18T05:41:02;100702.19;;;-4.72;75.63
72855;BME280;60991;51.278;22.550;2022-12-18T05:42:32;100693.84;;;-4.51;74.82
72855;BME280;60991;51.278;22.550;2022-12-18T05:44:03;100697.97;;;-4.49;74.66
72855;BME280;60991;51.278;22.550;2022-12-18T05:45:37;100701.41;;;-4.61;75.06
72855;BME280;60991;51.278;22.550;2022-12-18T05:47:07;100700.81;;;-4.65;74.92
72855;BME280;60991;51.278;22.550;2022-12-18T05:48:37;100703.16;;;-4.49;74.78
72855;BME280;60991;51.278;22.550;2022-12-18T05:50:07;100697.00;;;-4.72;74.64
72855;BME280;60991;51.278;22.550;2022-12-18T05:51:38;100696.72;;;-4.93;75.57
72855;BME280;60991;51.278;22.550;2022-12-18T05:53:08;100708.66;;;-5.03;75.90
72855;BME280;60991;51.278;22.550;2022-12-18T05:54:38;100709.50;;;-5.02;75.98
72855;BME280;60991;51.278;22.550;2022-12-18T05:56:15;100717.22;;;-4.77;75.36
72855;BME280;60991;51.278;22.550;2022-12-18T05:57:45;100718.44;;;-4.70;75.38
72855;BME280;60991;51.278;22.550;2022-12-18T05:59:16;100716.75;;;-4.58;74.69
72855;BME280;60991;51.278;22.550;2022-12-18T06:00:46;100727.13;;;-4.58;75.05
72855;BME280;60991;51.278;22.550;2022-12-18T06:02:16;100723.84;;;-4.73;75.49
72855;BME280;60991;51.278;22.550;2022-12-18T06:03:46;100715.75;;;-4.68;75.18
72855;BME280;60991;51.278;22.550;2022-12-18T06:05:16;100728.97;;;-4.60;74.78
72855;BME280;60991;51.278;22.550;2022-12-18T06:06:47;100725.34;;;-4.58;74.73
72855;BME280;60991;51.278;22.550;2022-12-18T06:08:17;100726.91;;;-4.55;74.68
72855;BME280;60991;51.278;22.550;2022-12-18T06:09:47;100733.13;;;-4.58;74.42
72855;BME280;60991;51.278;22.550;2022-12-18T06:11:21;100736.13;;;-4.51;74.62
72855;BME280;60991;51.278;22.550;2022-12-18T06:12:51;100733.31;;;-4.48;74.25
72855;BME280;60991;51.278;22.550;2022-12-18T06:14:22;100746.75;;;-4.30;73.45
72855;BME280;60991;51.278;22.550;2022-12-18T06:15:52;100748.63;;;-4.45;73.98
72855;BME280;60991;51.278;22.550;2022-12-18T06:17:22;100749.75;;;-4.36;74.54
72855;BME280;60991;51.278;22.550;2022-12-18T06:18:52;100749.75;;;-4.36;73.81
72855;BME280;60991;51.278;22.550;2022-12-18T06:20:22;100754.63;;;-4.44;73.96
72855;BME280;60991;51.278;22.550;2022-12-18T06:21:53;100745.97;;;-4.56;74.14
72855;BME280;60991;51.278;22.550;2022-12-18T06:23:23;100753.97;;;-4.72;75.17
72855;BME280;60991;51.278;22.550;2022-12-18T06:24:53;100751.19;;;-4.81;75.61
72855;BME280;60991;51.278;22.550;2022-12-18T06:26:24;100756.38;;;-4.81;75.47
72855;BME280;60991;51.278;22.550;2022-12-18T06:27:54;100766.44;;;-4.90;76.30
72855;BME280;60991;51.278;22.550;2022-12-18T06:29:24;100758.25;;;-4.83;76.25
72855;BME280;60991;51.278;22.550;2022-12-18T06:30:55;100763.81;;;-4.77;75.95
72855;BME280;60991;51.278;22.550;2022-12-18T06:32:25;100769.31;;;-4.81;76.08
72855;BME280;60991;51.278;22.550;2022-12-18T06:33:55;100775.00;;;-4.76;76.30
72855;BME280;60991;51.278;22.550;2022-12-18T06:35:25;100777.50;;;-4.75;75.82
72855;BME280;60991;51.278;22.550;2022-12-18T06:36:56;100779.88;;;-4.72;76.35
72855;BME280;60991;51.278;22.550;2022-12-18T06:38:26;100782.28;;;-4.69;76.33
72855;BME280;60991;51.278;22.550;2022-12-18T06:39:56;100775.00;;;-4.64;76.06
72855;BME280;60991;51.278;22.550;2022-12-18T06:41:26;100780.72;;;-4.71;76.60
72855;BME280;60991;51.278;22.550;2022-12-18T06:42:57;100787.44;;;-4.69;76.61
72855;BME280;60991;51.278;22.550;2022-12-18T06:44:27;100784.94;;;-4.58;76.18
72855;BME280;60991;51.278;22.550;2022-12-18T06:45:59;100788.66;;;-4.49;75.89
72855;BME280;60991;51.278;22.550;2022-12-18T06:47:29;100796.53;;;-4.63;76.17
72855;BME280;60991;51.278;22.550;2022-12-18T06:49:00;100789.94;;;-4.67;76.52
72855;BME280;60991;51.278;22.550;2022-12-18T06:50:30;100788.16;;;-4.79;77.03
72855;BME280;60991;51.278;22.550;2022-12-18T06:52:00;100801.22;;;-4.81;77.18
72855;BME280;60991;51.278;22.550;2022-12-18T06:53:32;100795.63;;;-4.49;76.36
72855;BME280;60991;51.278;22.550;2022-12-18T06:55:02;100804.41;;;-4.52;76.14
72855;BME280;60991;51.278;22.550;2022-12-18T06:56:33;100814.44;;;-4.35;76.22
72855;BME280;60991;51.278;22.550;2022-12-18T06:58:04;100815.69;;;-4.28;75.96
72855;BME280;60991;51.278;22.550;2022-12-18T06:59:34;100813.78;;;-4.26;75.68
72855;BME280;60991;51.278;22.550;2022-12-18T07:01:06;100816.28;;;-4.24;75.45
72855;BME280;60991;51.278;22.550;2022-12-18T07:02:37;100813.81;;;-4.38;76.12
72855;BME280;60991;51.278;22.550;2022-12-18T07:04:07;100816.22;;;-4.35;75.74
72855;BME280;60991;51.278;22.550;2022-12-18T07:05:40;100816.56;;;-4.16;75.39
72855;BME280;60991;51.278;22.550;2022-12-18T07:07:10;100812.72;;;-4.10;75.15
72855;BME280;60991;51.278;22.550;2022-12-18T07:08:40;100816.47;;;-4.14;75.92
72855;BME280;60991;51.278;22.550;2022-12-18T07:10:10;100820.69;;;-4.01;74.69
72855;BME280;60991;51.278;22.550;2022-12-18T07:11:41;100822.34;;;-4.00;74.22
72855;BME280;60991;51.278;22.550;2022-12-18T07:13:11;100832.13;;;-4.16;75.38
72855;BME280;60991;51.278;22.550;2022-12-18T07:14:41;100834.47;;;-4.00;74.84
72855;BME280;60991;51.278;22.550;2022-12-18T07:16:17;100839.94;;;-3.92;74.88
72855;BME280;60991;51.278;22.550;2022-12-18T07:17:47;100849.66;;;-3.83;74.85
72855;BME280;60991;51.278;22.550;2022-12-18T07:19:17;100850.91;;;-3.89;74.44
72855;BME280;60991;51.278;22.550;2022-12-18T07:20:48;100853.44;;;-4.00;74.80
72855;BME280;60991;51.278;22.550;2022-12-18T07:22:18;100857.09;;;-4.02;74.60
72855;BME280;60991;51.278;22.550;2022-12-18T07:23:48;100841.50;;;-3.90;74.87
72855;BME280;60991;51.278;22.550;2022-12-18T07:25:18;100853.69;;;-4.15;74.69
72855;BME280;60991;51.278;22.550;2022-12-18T07:26:48;100851.84;;;-4.26;75.57
72855;BME280;60991;51.278;22.550;2022-12-18T07:28:19;100853.50;;;-4.25;75.43
72855;BME280;60991;51.278;22.550;2022-12-18T07:29:49;100860.72;;;-4.05;75.31
72855;BME280;60991;51.278;22.550;2022-12-18T07:31:21;100861.53;;;-4.04;75.29
72855;BME280;60991;51.278;22.550;2022-12-18T07:32:51;100861.34;;;-4.01;75.30
72855;BME280;60991;51.278;22.550;2022-12-18T07:34:21;100855.72;;;-3.95;74.96
72855;BME280;60991;51.278;22.550;2022-12-18T07:35:51;100867.41;;;-4.13;74.70
72855;BME280;60991;51.278;22.550;2022-12-18T07:37:22;100863.47;;;-4.32;75.20
72855;BME280;60991;51.278;22.550;2022-12-18T07:38:52;100870.31;;;-4.31;76.05
72855;BME280;60991;51.278;22.550;2022-12-18T07:40:22;100868.47;;;-4.29;76.22
72855;BME280;60991;51.278;22.550;2022-12-18T07:41:52;100879.31;;;-4.24;76.16
72855;BME280;60991;51.278;22.550;2022-12-18T07:43:23;100880.16;;;-4.23;76.21
72855;BME280;60991;51.278;22.550;2022-12-18T07:44:53;100889.78;;;-4.25;76.35
72855;BME280;60991;51.278;22.550;2022-12-18T07:46:23;100890.28;;;-4.07;75.98
72855;BME280;60991;51.278;22.550;2022-12-18T07:47:53;100895.78;;;-3.99;75.76
72855;BME280;60991;51.278;22.550;2022-12-18T07:49:24;100889.03;;;-4.02;75.38
72855;BME280;60991;51.278;22.550;2022-12-18T07:51:01;100895.88;;;-4.01;75.35
72855;BME280;60991;51.278;22.550;2022-12-18T07:52:32;100887.38;;;-3.90;74.93
72855;BME280;60991;51.278;22.550;2022-12-18T07:54:03;100890.47;;;-3.98;74.84
72855;BME280;60991;51.278;22.550;2022-12-18T07:55:33;100899.31;;;-4.00;75.20
72855;BME280;60991;51.278;22.550;2022-12-18T07:57:03;100896.19;;;-3.93;74.98
72855;BME280;60991;51.278;22.550;2022-12-18T07:58:34;100893.22;;;-4.12;74.77
72855;BME280;60991;51.278;22.550;2022-12-18T08:00:05;100898.81;;;-4.18;75.39
72855;BME280;60991;51.278;22.550;2022-12-18T08:01:36;100899.34;;;-4.26;75.49
72855;BME280;60991;51.278;22.550;2022-12-18T08:03:06;100900.28;;;-4.14;75.81
72855;BME280;60991;51.278;22.550;2022-12-18T08:04:36;100909.78;;;-4.02;75.14
72855;BME280;60991;51.278;22.550;2022-12-18T08:06:08;100909.69;;;-4.00;75.08
72855;BME280;60991;51.278;22.550;2022-12-18T08:07:39;100925.09;;;-3.86;74.60
72855;BME280;60991;51.278;22.550;2022-12-18T08:09:09;100914.13;;;-3.90;74.97
72855;BME280;60991;51.278;22.550;2022-12-18T08:10:40;100917.00;;;-3.81;74.70
72855;BME280;60991;51.278;22.550;2022-12-18T08:12:10;100911.97;;;-3.96;74.04
72855;BME280;60991;51.278;22.550;2022-12-18T08:13:40;100919.13;;;-3.99;74.71
72855;BME280;60991;51.278;22.550;2022-12-18T08:15:10;100914.66;;;-3.97;74.29
72855;BME280;60991;51.278;22.550;2022-12-18T08:16:41;100919.34;;;-4.15;74.46
72855;BME280;60991;51.278;22.550;2022-12-18T08:18:11;100921.97;;;-4.28;75.33